Grande Francia — ICBC — position and weather

sailwx.info

Track history (hours):
 
Tides and Currents Weather Stations Pressure Air Temp Water Temp Dewpoint Dewpoint Depression Visibility Wind Speed Wind Dir Waves Ship Positions

Grande Francia

Last reported at 2017-Nov-15 06:37 UTC. Time now 2017-Nov-22 20:37 UTC.
Position N 27°41' W 014°27'.

Length 214 m; draft 9.7 m.

Type: Ship (hazmat cat D). MMSI: 247078800.

Date/timePositionNaut miles runAvg speedWind from/ knotsBaromVisibWave heightAir tempDewpointWater temp
2017-Nov-15 06:37N 27°41' W 014°27'315.3
2017-Nov-15 06:23N 27°43' W 014°25'615.2
2017-Nov-15 06:00N 27°48' W 014°22'2714.4
2017-Nov-15 04:08N 28°06' W 013°59'214.9
2017-Nov-15 04:01N 28°07' W 013°57'2014.4
2017-Nov-15 02:37N 28°24' W 013°46'416.2
2017-Nov-15 02:22N 28°28' W 013°44'616.1
2017-Nov-15 01:59N 28°34' W 013°43'815.6
2017-Nov-15 01:30N 28°41' W 013°41'915.2
2017-Nov-15 00:56N 28°48' W 013°34'815.4
2017-Nov-15 00:24N 28°53' W 013°27'615.0
2017-Nov-15 00:00N 28°57' W 013°22'714.5
2017-Nov-14 23:30N 29°02' W 013°16'814.9
2017-Nov-14 22:59N 29°10' W 013°14'  
2017-Nov-11 23:58N 48°19' W 006°18'916.3
2017-Nov-11 23:24N 48°27' W 006°11'815.9
2017-Nov-11 22:53N 48°34' W 006°04'815.7
2017-Nov-11 22:24N 48°40' W 005°58'716.0
2017-Nov-11 21:59N 48°46' W 005°53'715.2
2017-Nov-11 21:30N 48°52' W 005°48'714.0
2017-Nov-11 20:59N 48°57' W 005°39'714.4
2017-Nov-11 20:30N 48°60' W 005°29'713.9
2017-Nov-11 19:59N 49°03' W 005°20'714.1
2017-Nov-11 19:28N 49°07' W 005°10'614.2
2017-Nov-11 19:01N 49°10' W 005°01'814.2
2017-Nov-11 18:28N 49°14' W 004°51'714.6
2017-Nov-11 17:59N 49°18' W 004°43'2214.5
2017-Nov-11 16:28N 49°29' W 004°13'2715.0
2017-Nov-11 14:38N 49°44' W 003°37'214.9
2017-Nov-11 14:31N 49°45' W 003°35'714.8
2017-Nov-11 14:01N 49°49' W 003°26'714.6
2017-Nov-11 13:31N 49°53' W 003°16'714.2
2017-Nov-11 13:01N 49°57' W 003°06'714.0
2017-Nov-11 12:31N 49°59' W 002°56'713.9
2017-Nov-11 11:59N 50°00' W 002°45'713.9
2017-Nov-11 11:31N 50°01' W 002°35'714.0
2017-Nov-11 11:01N 50°03' W 002°24'714.3
2017-Nov-11 10:31N 50°05' W 002°14'714.4
2017-Nov-11 10:01N 50°05' W 002°02'714.9
2017-Nov-11 09:31N 50°04' W 001°51'815.4
2017-Nov-11 09:00N 50°03' W 001°39'714.8
2017-Nov-11 08:30N 49°59' W 001°29'816.1
2017-Nov-11 08:00N 49°56' W 001°18'816.4
2017-Nov-11 07:31N 49°52' W 001°06'816.6
2017-Nov-11 07:00N 49°48' W 000°55'816.4
2017-Nov-11 06:31N 49°45' W 000°44'816.6
2017-Nov-11 06:00N 49°40' W 000°33'816.3
2017-Nov-11 05:31N 49°36' W 000°22'816.0
2017-Nov-11 05:01N 49°33' W 000°11'611.2
2017-Nov-11 04:31N 49°31' W 000°03'713.1
2017-Nov-11 04:01N 49°29' E 000°07'2 4.7
2017-Nov-11 03:30N 49°29' E 000°10'0 0.1
2017-Nov-11 03:01N 49°29' E 000°10'0 0.7
2017-Nov-11 02:30N 49°29' E 000°11'0 0.0
2017-Nov-11 02:00N 49°29' E 000°11'0 0.0
2017-Nov-11 01:30N 49°29' E 000°11'0 0.0
2017-Nov-11 01:00N 49°29' E 000°11'0 0.0
2017-Nov-11 00:30N 49°29' E 000°11'0 0.0
2017-Nov-11 00:00N 49°29' E 000°11'0 0.0
2017-Nov-10 23:30N 49°29' E 000°11'0 0.0
2017-Nov-10 23:00N 49°29' E 000°11'0 0.0
2017-Nov-10 22:30N 49°29' E 000°11'0 0.0
2017-Nov-10 22:00N 49°29' E 000°11'0 0.0
2017-Nov-10 21:30N 49°29' E 000°11'0 0.0
2017-Nov-10 21:00N 49°29' E 000°11'0 0.0
2017-Nov-10 20:30N 49°29' E 000°11'0 0.0
2017-Nov-10 20:00N 49°29' E 000°11'0 0.0
2017-Nov-10 19:30N 49°29' E 000°11'0 0.0
2017-Nov-10 19:00N 49°29' E 000°11'0 0.0
2017-Nov-10 18:30N 49°29' E 000°11'0 0.0
2017-Nov-10 18:00N 49°29' E 000°11'0 0.0
2017-Nov-10 17:30N 49°29' E 000°11'0 0.0
2017-Nov-10 17:00N 49°29' E 000°11'0 0.0
2017-Nov-10 16:30N 49°29' E 000°11'0 0.0
2017-Nov-10 16:00N 49°29' E 000°11'0 0.0
2017-Nov-10 15:30N 49°29' E 000°11'0 0.0
2017-Nov-10 15:00N 49°29' E 000°11'0 0.0
2017-Nov-10 14:30N 49°29' E 000°11'0 0.0
2017-Nov-10 14:00N 49°29' E 000°11'0 0.0
2017-Nov-10 13:30N 49°29' E 000°11'0 0.0
2017-Nov-10 13:00N 49°29' E 000°11'0 0.0
2017-Nov-10 12:30N 49°29' E 000°11'0 0.0
2017-Nov-10 12:00N 49°29' E 000°11'0 0.0
2017-Nov-10 11:30N 49°29' E 000°11'0 0.0
2017-Nov-10 11:00N 49°29' E 000°11'0 0.0
2017-Nov-10 10:30N 49°29' E 000°11'0 0.0
2017-Nov-10 10:00N 49°29' E 000°11'0 0.0
2017-Nov-10 09:30N 49°29' E 000°11'0 0.0
2017-Nov-10 09:00N 49°29' E 000°11'0 0.0
2017-Nov-10 08:30N 49°29' E 000°11'0 0.0
2017-Nov-10 08:00N 49°29' E 000°11'0 0.0
2017-Nov-10 07:30N 49°29' E 000°11'0 0.0
2017-Nov-10 07:00N 49°29' E 000°11'0 0.0
2017-Nov-10 06:30N 49°29' E 000°11'0 0.0
2017-Nov-10 06:00N 49°29' E 000°11'0 0.0
2017-Nov-10 05:30N 49°29' E 000°11'0 0.0
2017-Nov-10 05:00N 49°29' E 000°11'0 0.0
2017-Nov-10 04:30N 49°29' E 000°11'0 0.0
2017-Nov-10 04:00N 49°29' E 000°11'0 0.0
2017-Nov-10 03:30N 49°29' E 000°11'0 0.0
2017-Nov-10 03:00N 49°29' E 000°11'0 0.0
2017-Nov-10 02:30N 49°29' E 000°11'0 0.0
2017-Nov-10 02:00N 49°29' E 000°11'0 0.0
2017-Nov-10 01:30N 49°29' E 000°11'0 0.0
2017-Nov-10 01:00N 49°29' E 000°11'0 0.0
2017-Nov-10 00:30N 49°29' E 000°11'0 0.0
2017-Nov-10 00:00N 49°29' E 000°11'0 0.0
2017-Nov-09 23:30N 49°29' E 000°11'0 0.0
2017-Nov-09 23:00N 49°29' E 000°11'0 0.8
2017-Nov-09 22:31N 49°29' E 000°10'0 0.1
2017-Nov-09 22:01N 49°29' E 000°10'1 2.3
2017-Nov-09 21:31N 49°28' E 000°09'4 7.8
2017-Nov-09 21:01N 49°30' E 000°03'612.9
2017-Nov-09 20:31N 49°31' W 000°06'5 9.1
2017-Nov-09 20:01N 49°35' W 000°11'612.7
2017-Nov-09 19:31N 49°41' W 000°10'713.1
2017-Nov-09 19:01N 49°48' W 000°10'612.9
2017-Nov-09 18:31N 49°54' W 000°09'714.5
2017-Nov-09 18:01N 50°01' W 000°08'816.4
2017-Nov-09 17:30N 50°09' W 000°08'816.6
2017-Nov-09 17:01N 50°18' W 000°06'917.9
2017-Nov-09 16:30N 50°27' W 000°04'918.0
2017-Nov-09 16:01N 50°30' E 000°09'917.8
2017-Nov-09 15:31N 50°32' E 000°23'917.3
2017-Nov-09 15:01N 50°35' E 000°35'816.7
2017-Nov-09 14:30N 50°39' E 000°47'816.5
2017-Nov-09 14:01N 50°44' E 000°57'816.3
2017-Nov-09 13:31N 50°49' E 001°07'816.4
2017-Nov-09 13:00N 50°55' E 001°17'917.3
2017-Nov-09 12:30N 51°01' E 001°27'918.6
2017-Nov-09 12:01N 51°08' E 001°37'1019.1
2017-Nov-09 11:31N 51°15' E 001°47'1019.0
2017-Nov-09 11:01N 51°23' E 001°55'815.2
2017-Nov-09 10:31N 51°23' E 002°08'816.5
2017-Nov-09 10:01N 51°21' E 002°20'917.5
2017-Nov-09 09:30N 51°23' E 002°34'815.2
2017-Nov-09 09:00N 51°22' E 002°46'715.2
2017-Nov-09 08:31N 51°23' E 002°58'815.9
2017-Nov-09 08:01N 51°24' E 003°11'917.3
2017-Nov-09 07:31N 51°25' E 003°24'713.9
2017-Nov-09 07:01N 51°26' E 003°35'5 9.6
2017-Nov-09 06:31N 51°24' E 003°43'713.7
2017-Nov-09 06:01N 51°21' E 003°52'714.1
2017-Nov-09 05:31N 51°26' E 003°60'611.1
2017-Nov-09 05:01N 51°22' E 004°06'5 9.2
2017-Nov-09 04:30N 51°22' E 004°13'4 8.9
2017-Nov-09 04:00N 51°18' E 004°17'2 4.8
2017-Nov-09 03:30N 51°16' E 004°17'0 0.5
2017-Nov-09 03:01N 51°16' E 004°17'0 0.6
2017-Nov-09 02:30N 51°16' E 004°16'2 4.0
2017-Nov-09 02:00N 51°17' E 004°13'0 0.4
2017-Nov-09 01:30N 51°17' E 004°13'0 0.0
2017-Nov-09 01:00N 51°17' E 004°13'0 0.0
2017-Nov-09 00:30N 51°17' E 004°13'0 0.0
2017-Nov-09 00:00N 51°17' E 004°13'0 0.0
2017-Nov-08 23:30N 51°17' E 004°13'0 0.0
2017-Nov-08 23:00N 51°17' E 004°13'0 0.0
2017-Nov-08 22:30N 51°17' E 004°13'0 0.0
2017-Nov-08 22:00N 51°17' E 004°13'0 0.0
2017-Nov-08 21:30N 51°17' E 004°13'0 0.0
2017-Nov-08 20:57N 51°17' E 004°13'0 0.0
2017-Nov-08 20:30N 51°17' E 004°13'0 0.0
2017-Nov-08 20:00N 51°17' E 004°13'0 0.0
2017-Nov-08 19:30N 51°17' E 004°13'0 0.0
2017-Nov-08 19:00N 51°17' E 004°13'0 0.0
2017-Nov-08 18:30N 51°17' E 004°13'0 0.0
2017-Nov-08 18:00N 51°17' E 004°13'0 0.0
2017-Nov-08 17:30N 51°17' E 004°13'0 0.0
2017-Nov-08 17:00N 51°17' E 004°13'0 0.0
2017-Nov-08 16:30N 51°17' E 004°13'0 0.0
2017-Nov-08 16:00N 51°17' E 004°13'0 0.0
2017-Nov-08 15:30N 51°17' E 004°13'0 0.0
2017-Nov-08 15:00N 51°17' E 004°13'0 0.0
2017-Nov-08 14:30N 51°17' E 004°13'0 0.0
2017-Nov-08 14:00N 51°17' E 004°13'0 0.0
2017-Nov-08 13:30N 51°17' E 004°13'0 0.0
2017-Nov-08 13:00N 51°17' E 004°13'0 0.0
2017-Nov-08 12:30N 51°17' E 004°13'0 0.0
2017-Nov-08 12:00N 51°17' E 004°13'0 0.0
2017-Nov-08 11:30N 51°17' E 004°13'0 0.0
2017-Nov-08 11:00N 51°17' E 004°13'0 0.0
2017-Nov-08 10:30N 51°17' E 004°13'0 0.0
2017-Nov-08 10:00N 51°17' E 004°13'0 0.0
2017-Nov-08 09:30N 51°17' E 004°13'0 0.0
2017-Nov-08 09:00N 51°17' E 004°13'0 0.0
2017-Nov-08 08:30N 51°17' E 004°13'0 0.0
2017-Nov-08 08:00N 51°17' E 004°13'0 0.0
2017-Nov-08 07:30N 51°17' E 004°13'0 0.0
2017-Nov-08 07:00N 51°17' E 004°13'0 0.0
2017-Nov-08 06:30N 51°17' E 004°13'0 0.0
2017-Nov-08 06:00N 51°17' E 004°13'0 0.0
2017-Nov-08 05:30N 51°17' E 004°13'0 0.0
2017-Nov-08 05:00N 51°17' E 004°13'0 0.0
2017-Nov-08 04:30N 51°17' E 004°13'0 0.0
2017-Nov-08 04:00N 51°17' E 004°13'0 0.0
2017-Nov-08 03:30N 51°17' E 004°13'0 0.0
2017-Nov-08 03:00N 51°17' E 004°13'0 0.0
2017-Nov-08 02:30N 51°17' E 004°13'0 0.0
2017-Nov-08 02:00N 51°17' E 004°13'0 0.0
2017-Nov-08 01:30N 51°17' E 004°13'0 0.0
2017-Nov-08 01:00N 51°17' E 004°13'0 0.0
2017-Nov-08 00:30N 51°17' E 004°13'0 0.0
2017-Nov-08 00:00N 51°17' E 004°13'0 0.0
2017-Nov-07 23:30N 51°17' E 004°13'0 0.0
2017-Nov-07 23:00N 51°17' E 004°13'0 0.0
2017-Nov-07 22:30N 51°17' E 004°13'0 0.0
2017-Nov-07 22:00N 51°17' E 004°13'0 0.0
2017-Nov-07 21:30N 51°17' E 004°13'0 0.0
2017-Nov-07 21:00N 51°17' E 004°13'0 0.0
2017-Nov-07 20:30N 51°17' E 004°13'0 0.0
2017-Nov-07 20:00N 51°17' E 004°13'0 0.0
2017-Nov-07 19:30N 51°17' E 004°13'0 0.0
2017-Nov-07 19:00N 51°17' E 004°13'0 0.0
2017-Nov-07 18:30N 51°17' E 004°13'0 0.0
2017-Nov-07 17:57N 51°17' E 004°13'0 0.0
2017-Nov-07 17:30N 51°17' E 004°13'0 0.0
2017-Nov-07 17:00N 51°17' E 004°13'0 0.0
2017-Nov-07 16:30N 51°17' E 004°13'0 0.0
2017-Nov-07 16:00N 51°17' E 004°13'0 0.0
2017-Nov-07 15:30N 51°17' E 004°13'0 0.0
2017-Nov-07 15:00N 51°17' E 004°13'0 0.0
2017-Nov-07 14:30N 51°17' E 004°13'0 0.0
2017-Nov-07 14:00N 51°17' E 004°13'0 0.0
2017-Nov-07 13:30N 51°17' E 004°13'0 0.0
2017-Nov-07 13:00N 51°17' E 004°13'0 0.0
2017-Nov-07 12:30N 51°17' E 004°13'0 0.0
2017-Nov-07 12:00N 51°17' E 004°13'0 0.0
2017-Nov-07 11:30N 51°17' E 004°13'0 0.0
2017-Nov-07 11:00N 51°17' E 004°13'0 0.0
2017-Nov-07 10:30N 51°17' E 004°13'0 0.0
2017-Nov-07 10:00N 51°17' E 004°13'0 0.0
2017-Nov-07 09:30N 51°17' E 004°13'0 0.0
2017-Nov-07 09:00N 51°17' E 004°13'0 0.0
2017-Nov-07 08:30N 51°17' E 004°13'0 0.0
2017-Nov-07 08:00N 51°17' E 004°13'0 0.0
2017-Nov-07 07:30N 51°17' E 004°13'0 0.0
2017-Nov-07 07:00N 51°17' E 004°13'0 0.0
2017-Nov-07 06:27N 51°17' E 004°13'0 0.0
2017-Nov-07 06:00N 51°17' E 004°13'0 0.0
2017-Nov-07 05:30N 51°17' E 004°13'0 0.0
2017-Nov-07 05:00N 51°17' E 004°13'0 0.0
2017-Nov-07 04:30N 51°17' E 004°13'0 0.0
2017-Nov-07 04:00N 51°17' E 004°13'0 0.0
2017-Nov-07 03:30N 51°17' E 004°13'0 0.0
2017-Nov-07 03:00N 51°17' E 004°13'0 0.0
2017-Nov-07 02:30N 51°17' E 004°13'0 0.0
2017-Nov-07 02:00N 51°17' E 004°13'0 0.0
2017-Nov-07 01:30N 51°17' E 004°13'0 0.0
2017-Nov-07 01:00N 51°17' E 004°13'0 0.0
2017-Nov-07 00:30N 51°17' E 004°13'0 0.0
2017-Nov-07 00:00N 51°17' E 004°13'0 0.0
2017-Nov-06 23:30N 51°17' E 004°13'0 0.0
2017-Nov-06 23:00N 51°17' E 004°13'0 0.0
2017-Nov-06 22:30N 51°17' E 004°13'0 0.0
2017-Nov-06 21:54N 51°17' E 004°13'0 0.0
2017-Nov-06 21:30N 51°17' E 004°13'0 0.0
2017-Nov-06 21:00N 51°17' E 004°13'0 0.0
2017-Nov-06 20:30N 51°17' E 004°13'119 6.6
2017-Nov-06 02:30N 50°37' E 001°14'714.3
2017-Nov-06 02:00N 50°33' E 001°05'714.1
2017-Nov-06 01:30N 50°29' E 000°56'714.6
2017-Nov-06 01:01N 50°27' E 000°45'714.7
2017-Nov-06 00:31N 50°25' E 000°34'714.8
2017-Nov-06 00:01N 50°24' E 000°22'815.2
2017-Nov-05 23:31N 50°22' E 000°11'815.5
2017-Nov-05 23:00N 50°20' W 000°01'816.2
2017-Nov-05 22:31N 50°17' W 000°13'1117.1
2017-Nov-05 21:52N 50°14' W 000°29'717.6
2017-Nov-05 21:30N 50°12' W 000°39'917.8
2017-Nov-05 21:00N 50°09' W 000°52'917.9
2017-Nov-05 20:30N 50°07' W 001°05'918.2
2017-Nov-05 20:01N 50°04' W 001°19'918.3
2017-Nov-05 19:31N 50°02' W 001°33'816.7
2017-Nov-05 19:00N 49°59' W 001°45'713.3
2017-Nov-05 18:30N 49°57' W 001°55'612.2
2017-Nov-05 18:00N 49°56' W 002°04'611.3
2017-Nov-05 17:30N 49°54' W 002°13'910.2
2017-Nov-05 16:37N 49°53' W 002°26'2 9.7
2017-Nov-05 16:25N 49°52' W 002°29'4 9.4
2017-Nov-05 15:58N 49°51' W 002°36'4 9.0
2017-Nov-05 15:31N 49°50' W 002°42'4 8.7
2017-Nov-05 15:01N 49°49' W 002°49'4 8.5
2017-Nov-05 14:30N 49°47' W 002°54'4 8.4
2017-Nov-05 14:00N 49°45' W 003°00'4 8.4
2017-Nov-05 13:31N 49°43' W 003°06'4 8.3
2017-Nov-05 13:01N 49°41' W 003°11'4 8.4
2017-Nov-05 12:31N 49°39' W 003°17'4 8.3
2017-Nov-05 12:01N 49°37' W 003°22'4810.6
2017-Nov-05 07:28N 49°12' W 004°26'715.6
2017-Nov-05 07:00N 49°08' W 004°35'  
Track history (hours):
 
Tides and Currents Weather Stations Pressure Air Temp Water Temp Dewpoint Dewpoint Depression Visibility Wind Speed Wind Dir Waves Ship Positions

Grande Francia

Last reported at 2017-Nov-15 06:37 UTC. Time now 2017-Nov-22 20:37 UTC.
Position N 27°41' W 014°27'.

Length 214 m; draft 9.7 m.

Type: Ship (hazmat cat D). MMSI: 247078800.

Date/timePositionNaut miles runAvg speedWind from/ knotsBaromVisibWave heightAir tempDewpointWater temp
2017-Nov-15 06:37N 27°41' W 014°27'315.3
2017-Nov-15 06:23N 27°43' W 014°25'615.2
2017-Nov-15 06:00N 27°48' W 014°22'2714.4
2017-Nov-15 04:08N 28°06' W 013°59'214.9
2017-Nov-15 04:01N 28°07' W 013°57'2014.4
2017-Nov-15 02:37N 28°24' W 013°46'416.2
2017-Nov-15 02:22N 28°28' W 013°44'616.1
2017-Nov-15 01:59N 28°34' W 013°43'815.6
2017-Nov-15 01:30N 28°41' W 013°41'915.2
2017-Nov-15 00:56N 28°48' W 013°34'815.4
2017-Nov-15 00:24N 28°53' W 013°27'615.0
2017-Nov-15 00:00N 28°57' W 013°22'714.5
2017-Nov-14 23:30N 29°02' W 013°16'814.9
2017-Nov-14 22:59N 29°10' W 013°14'  
2017-Nov-11 23:58N 48°19' W 006°18'916.3
2017-Nov-11 23:24N 48°27' W 006°11'815.9
2017-Nov-11 22:53N 48°34' W 006°04'815.7
2017-Nov-11 22:24N 48°40' W 005°58'716.0
2017-Nov-11 21:59N 48°46' W 005°53'715.2
2017-Nov-11 21:30N 48°52' W 005°48'714.0
2017-Nov-11 20:59N 48°57' W 005°39'714.4
2017-Nov-11 20:30N 48°60' W 005°29'713.9
2017-Nov-11 19:59N 49°03' W 005°20'714.1
2017-Nov-11 19:28N 49°07' W 005°10'614.2
2017-Nov-11 19:01N 49°10' W 005°01'814.2
2017-Nov-11 18:28N 49°14' W 004°51'714.6
2017-Nov-11 17:59N 49°18' W 004°43'2214.5
2017-Nov-11 16:28N 49°29' W 004°13'2715.0
2017-Nov-11 14:38N 49°44' W 003°37'214.9
2017-Nov-11 14:31N 49°45' W 003°35'714.8
2017-Nov-11 14:01N 49°49' W 003°26'714.6
2017-Nov-11 13:31N 49°53' W 003°16'714.2
2017-Nov-11 13:01N 49°57' W 003°06'714.0
2017-Nov-11 12:31N 49°59' W 002°56'713.9
2017-Nov-11 11:59N 50°00' W 002°45'713.9
2017-Nov-11 11:31N 50°01' W 002°35'714.0
2017-Nov-11 11:01N 50°03' W 002°24'714.3
2017-Nov-11 10:31N 50°05' W 002°14'714.4
2017-Nov-11 10:01N 50°05' W 002°02'714.9
2017-Nov-11 09:31N 50°04' W 001°51'815.4
2017-Nov-11 09:00N 50°03' W 001°39'714.8
2017-Nov-11 08:30N 49°59' W 001°29'816.1
2017-Nov-11 08:00N 49°56' W 001°18'816.4
2017-Nov-11 07:31N 49°52' W 001°06'816.6
2017-Nov-11 07:00N 49°48' W 000°55'816.4
2017-Nov-11 06:31N 49°45' W 000°44'816.6
2017-Nov-11 06:00N 49°40' W 000°33'816.3
2017-Nov-11 05:31N 49°36' W 000°22'816.0
2017-Nov-11 05:01N 49°33' W 000°11'611.2
2017-Nov-11 04:31N 49°31' W 000°03'713.1
2017-Nov-11 04:01N 49°29' E 000°07'2 4.7
2017-Nov-11 03:30N 49°29' E 000°10'0 0.1
2017-Nov-11 03:01N 49°29' E 000°10'0 0.7
2017-Nov-11 02:30N 49°29' E 000°11'0 0.0
2017-Nov-11 02:00N 49°29' E 000°11'0 0.0
2017-Nov-11 01:30N 49°29' E 000°11'0 0.0
2017-Nov-11 01:00N 49°29' E 000°11'0 0.0
2017-Nov-11 00:30N 49°29' E 000°11'0 0.0
2017-Nov-11 00:00N 49°29' E 000°11'0 0.0
2017-Nov-10 23:30N 49°29' E 000°11'0 0.0
2017-Nov-10 23:00N 49°29' E 000°11'0 0.0
2017-Nov-10 22:30N 49°29' E 000°11'0 0.0
2017-Nov-10 22:00N 49°29' E 000°11'0 0.0
2017-Nov-10 21:30N 49°29' E 000°11'0 0.0
2017-Nov-10 21:00N 49°29' E 000°11'0 0.0
2017-Nov-10 20:30N 49°29' E 000°11'0 0.0
2017-Nov-10 20:00N 49°29' E 000°11'0 0.0
2017-Nov-10 19:30N 49°29' E 000°11'0 0.0
2017-Nov-10 19:00N 49°29' E 000°11'0 0.0
2017-Nov-10 18:30N 49°29' E 000°11'0 0.0
2017-Nov-10 18:00N 49°29' E 000°11'0 0.0
2017-Nov-10 17:30N 49°29' E 000°11'0 0.0
2017-Nov-10 17:00N 49°29' E 000°11'0 0.0
2017-Nov-10 16:30N 49°29' E 000°11'0 0.0
2017-Nov-10 16:00N 49°29' E 000°11'0 0.0
2017-Nov-10 15:30N 49°29' E 000°11'0 0.0
2017-Nov-10 15:00N 49°29' E 000°11'0 0.0
2017-Nov-10 14:30N 49°29' E 000°11'0 0.0
2017-Nov-10 14:00N 49°29' E 000°11'0 0.0
2017-Nov-10 13:30N 49°29' E 000°11'0 0.0
2017-Nov-10 13:00N 49°29' E 000°11'0 0.0
2017-Nov-10 12:30N 49°29' E 000°11'0 0.0
2017-Nov-10 12:00N 49°29' E 000°11'0 0.0
2017-Nov-10 11:30N 49°29' E 000°11'0 0.0
2017-Nov-10 11:00N 49°29' E 000°11'0 0.0
2017-Nov-10 10:30N 49°29' E 000°11'0 0.0
2017-Nov-10 10:00N 49°29' E 000°11'0 0.0
2017-Nov-10 09:30N 49°29' E 000°11'0 0.0
2017-Nov-10 09:00N 49°29' E 000°11'0 0.0
2017-Nov-10 08:30N 49°29' E 000°11'0 0.0
2017-Nov-10 08:00N 49°29' E 000°11'0 0.0
2017-Nov-10 07:30N 49°29' E 000°11'0 0.0
2017-Nov-10 07:00N 49°29' E 000°11'0 0.0
2017-Nov-10 06:30N 49°29' E 000°11'0 0.0
2017-Nov-10 06:00N 49°29' E 000°11'0 0.0
2017-Nov-10 05:30N 49°29' E 000°11'0 0.0
2017-Nov-10 05:00N 49°29' E 000°11'0 0.0
2017-Nov-10 04:30N 49°29' E 000°11'0 0.0
2017-Nov-10 04:00N 49°29' E 000°11'0 0.0
2017-Nov-10 03:30N 49°29' E 000°11'0 0.0
2017-Nov-10 03:00N 49°29' E 000°11'0 0.0
2017-Nov-10 02:30N 49°29' E 000°11'0 0.0
2017-Nov-10 02:00N 49°29' E 000°11'0 0.0
2017-Nov-10 01:30N 49°29' E 000°11'0 0.0
2017-Nov-10 01:00N 49°29' E 000°11'0 0.0
2017-Nov-10 00:30N 49°29' E 000°11'0 0.0
2017-Nov-10 00:00N 49°29' E 000°11'0 0.0
2017-Nov-09 23:30N 49°29' E 000°11'0 0.0
2017-Nov-09 23:00N 49°29' E 000°11'0 0.8
2017-Nov-09 22:31N 49°29' E 000°10'0 0.1
2017-Nov-09 22:01N 49°29' E 000°10'1 2.3
2017-Nov-09 21:31N 49°28' E 000°09'4 7.8
2017-Nov-09 21:01N 49°30' E 000°03'612.9
2017-Nov-09 20:31N 49°31' W 000°06'5 9.1
2017-Nov-09 20:01N 49°35' W 000°11'612.7
2017-Nov-09 19:31N 49°41' W 000°10'713.1
2017-Nov-09 19:01N 49°48' W 000°10'612.9
2017-Nov-09 18:31N 49°54' W 000°09'714.5
2017-Nov-09 18:01N 50°01' W 000°08'816.4
2017-Nov-09 17:30N 50°09' W 000°08'816.6
2017-Nov-09 17:01N 50°18' W 000°06'917.9
2017-Nov-09 16:30N 50°27' W 000°04'918.0
2017-Nov-09 16:01N 50°30' E 000°09'917.8
2017-Nov-09 15:31N 50°32' E 000°23'917.3
2017-Nov-09 15:01N 50°35' E 000°35'816.7
2017-Nov-09 14:30N 50°39' E 000°47'816.5
2017-Nov-09 14:01N 50°44' E 000°57'816.3
2017-Nov-09 13:31N 50°49' E 001°07'816.4
2017-Nov-09 13:00N 50°55' E 001°17'917.3
2017-Nov-09 12:30N 51°01' E 001°27'918.6
2017-Nov-09 12:01N 51°08' E 001°37'1019.1
2017-Nov-09 11:31N 51°15' E 001°47'1019.0
2017-Nov-09 11:01N 51°23' E 001°55'815.2
2017-Nov-09 10:31N 51°23' E 002°08'816.5
2017-Nov-09 10:01N 51°21' E 002°20'917.5
2017-Nov-09 09:30N 51°23' E 002°34'815.2
2017-Nov-09 09:00N 51°22' E 002°46'715.2
2017-Nov-09 08:31N 51°23' E 002°58'815.9
2017-Nov-09 08:01N 51°24' E 003°11'917.3
2017-Nov-09 07:31N 51°25' E 003°24'713.9
2017-Nov-09 07:01N 51°26' E 003°35'5 9.6
2017-Nov-09 06:31N 51°24' E 003°43'713.7
2017-Nov-09 06:01N 51°21' E 003°52'714.1
2017-Nov-09 05:31N 51°26' E 003°60'611.1
2017-Nov-09 05:01N 51°22' E 004°06'5 9.2
2017-Nov-09 04:30N 51°22' E 004°13'4 8.9
2017-Nov-09 04:00N 51°18' E 004°17'2 4.8
2017-Nov-09 03:30N 51°16' E 004°17'0 0.5
2017-Nov-09 03:01N 51°16' E 004°17'0 0.6
2017-Nov-09 02:30N 51°16' E 004°16'2 4.0
2017-Nov-09 02:00N 51°17' E 004°13'0 0.4
2017-Nov-09 01:30N 51°17' E 004°13'0 0.0
2017-Nov-09 01:00N 51°17' E 004°13'0 0.0
2017-Nov-09 00:30N 51°17' E 004°13'0 0.0
2017-Nov-09 00:00N 51°17' E 004°13'0 0.0
2017-Nov-08 23:30N 51°17' E 004°13'0 0.0
2017-Nov-08 23:00N 51°17' E 004°13'0 0.0
2017-Nov-08 22:30N 51°17' E 004°13'0 0.0
2017-Nov-08 22:00N 51°17' E 004°13'0 0.0
2017-Nov-08 21:30N 51°17' E 004°13'0 0.0
2017-Nov-08 20:57N 51°17' E 004°13'0 0.0
2017-Nov-08 20:30N 51°17' E 004°13'0 0.0
2017-Nov-08 20:00N 51°17' E 004°13'0 0.0
2017-Nov-08 19:30N 51°17' E 004°13'0 0.0
2017-Nov-08 19:00N 51°17' E 004°13'0 0.0
2017-Nov-08 18:30N 51°17' E 004°13'0 0.0
2017-Nov-08 18:00N 51°17' E 004°13'0 0.0
2017-Nov-08 17:30N 51°17' E 004°13'0 0.0
2017-Nov-08 17:00N 51°17' E 004°13'0 0.0
2017-Nov-08 16:30N 51°17' E 004°13'0 0.0
2017-Nov-08 16:00N 51°17' E 004°13'0 0.0
2017-Nov-08 15:30N 51°17' E 004°13'0 0.0
2017-Nov-08 15:00N 51°17' E 004°13'0 0.0
2017-Nov-08 14:30N 51°17' E 004°13'0 0.0
2017-Nov-08 14:00N 51°17' E 004°13'0 0.0
2017-Nov-08 13:30N 51°17' E 004°13'0 0.0
2017-Nov-08 13:00N 51°17' E 004°13'0 0.0
2017-Nov-08 12:30N 51°17' E 004°13'0 0.0
2017-Nov-08 12:00N 51°17' E 004°13'0 0.0
2017-Nov-08 11:30N 51°17' E 004°13'0 0.0
2017-Nov-08 11:00N 51°17' E 004°13'0 0.0
2017-Nov-08 10:30N 51°17' E 004°13'0 0.0
2017-Nov-08 10:00N 51°17' E 004°13'0 0.0
2017-Nov-08 09:30N 51°17' E 004°13'0 0.0
2017-Nov-08 09:00N 51°17' E 004°13'0 0.0
2017-Nov-08 08:30N 51°17' E 004°13'0 0.0
2017-Nov-08 08:00N 51°17' E 004°13'0 0.0
2017-Nov-08 07:30N 51°17' E 004°13'0 0.0
2017-Nov-08 07:00N 51°17' E 004°13'0 0.0
2017-Nov-08 06:30N 51°17' E 004°13'0 0.0
2017-Nov-08 06:00N 51°17' E 004°13'0 0.0
2017-Nov-08 05:30N 51°17' E 004°13'0 0.0
2017-Nov-08 05:00N 51°17' E 004°13'0 0.0
2017-Nov-08 04:30N 51°17' E 004°13'0 0.0
2017-Nov-08 04:00N 51°17' E 004°13'0 0.0
2017-Nov-08 03:30N 51°17' E 004°13'0 0.0
2017-Nov-08 03:00N 51°17' E 004°13'0 0.0
2017-Nov-08 02:30N 51°17' E 004°13'0 0.0
2017-Nov-08 02:00N 51°17' E 004°13'0 0.0
2017-Nov-08 01:30N 51°17' E 004°13'0 0.0
2017-Nov-08 01:00N 51°17' E 004°13'0 0.0
2017-Nov-08 00:30N 51°17' E 004°13'0 0.0
2017-Nov-08 00:00N 51°17' E 004°13'0 0.0
2017-Nov-07 23:30N 51°17' E 004°13'0 0.0
2017-Nov-07 23:00N 51°17' E 004°13'0 0.0
2017-Nov-07 22:30N 51°17' E 004°13'0 0.0
2017-Nov-07 22:00N 51°17' E 004°13'0 0.0
2017-Nov-07 21:30N 51°17' E 004°13'0 0.0
2017-Nov-07 21:00N 51°17' E 004°13'0 0.0
2017-Nov-07 20:30N 51°17' E 004°13'0 0.0
2017-Nov-07 20:00N 51°17' E 004°13'0 0.0
2017-Nov-07 19:30N 51°17' E 004°13'0 0.0
2017-Nov-07 19:00N 51°17' E 004°13'0 0.0
2017-Nov-07 18:30N 51°17' E 004°13'0 0.0
2017-Nov-07 17:57N 51°17' E 004°13'0 0.0
2017-Nov-07 17:30N 51°17' E 004°13'0 0.0
2017-Nov-07 17:00N 51°17' E 004°13'0 0.0
2017-Nov-07 16:30N 51°17' E 004°13'0 0.0
2017-Nov-07 16:00N 51°17' E 004°13'0 0.0
2017-Nov-07 15:30N 51°17' E 004°13'0 0.0
2017-Nov-07 15:00N 51°17' E 004°13'0 0.0
2017-Nov-07 14:30N 51°17' E 004°13'0 0.0
2017-Nov-07 14:00N 51°17' E 004°13'0 0.0
2017-Nov-07 13:30N 51°17' E 004°13'0 0.0
2017-Nov-07 13:00N 51°17' E 004°13'0 0.0
2017-Nov-07 12:30N 51°17' E 004°13'0 0.0
2017-Nov-07 12:00N 51°17' E 004°13'0 0.0
2017-Nov-07 11:30N 51°17' E 004°13'0 0.0
2017-Nov-07 11:00N 51°17' E 004°13'0 0.0
2017-Nov-07 10:30N 51°17' E 004°13'0 0.0
2017-Nov-07 10:00N 51°17' E 004°13'0 0.0
2017-Nov-07 09:30N 51°17' E 004°13'0 0.0
2017-Nov-07 09:00N 51°17' E 004°13'0 0.0
2017-Nov-07 08:30N 51°17' E 004°13'0 0.0
2017-Nov-07 08:00N 51°17' E 004°13'0 0.0
2017-Nov-07 07:30N 51°17' E 004°13'0 0.0
2017-Nov-07 07:00N 51°17' E 004°13'0 0.0
2017-Nov-07 06:27N 51°17' E 004°13'0 0.0
2017-Nov-07 06:00N 51°17' E 004°13'0 0.0
2017-Nov-07 05:30N 51°17' E 004°13'0 0.0
2017-Nov-07 05:00N 51°17' E 004°13'0 0.0
2017-Nov-07 04:30N 51°17' E 004°13'0 0.0
2017-Nov-07 04:00N 51°17' E 004°13'0 0.0
2017-Nov-07 03:30N 51°17' E 004°13'0 0.0
2017-Nov-07 03:00N 51°17' E 004°13'0 0.0
2017-Nov-07 02:30N 51°17' E 004°13'0 0.0
2017-Nov-07 02:00N 51°17' E 004°13'0 0.0
2017-Nov-07 01:30N 51°17' E 004°13'0 0.0
2017-Nov-07 01:00N 51°17' E 004°13'0 0.0
2017-Nov-07 00:30N 51°17' E 004°13'0 0.0
2017-Nov-07 00:00N 51°17' E 004°13'0 0.0
2017-Nov-06 23:30N 51°17' E 004°13'0 0.0
2017-Nov-06 23:00N 51°17' E 004°13'0 0.0
2017-Nov-06 22:30N 51°17' E 004°13'0 0.0
2017-Nov-06 21:54N 51°17' E 004°13'0 0.0
2017-Nov-06 21:30N 51°17' E 004°13'0 0.0
2017-Nov-06 21:00N 51°17' E 004°13'0 0.0
2017-Nov-06 20:30N 51°17' E 004°13'119 6.6
2017-Nov-06 02:30N 50°37' E 001°14'714.3
2017-Nov-06 02:00N 50°33' E 001°05'714.1
2017-Nov-06 01:30N 50°29' E 000°56'714.6
2017-Nov-06 01:01N 50°27' E 000°45'714.7
2017-Nov-06 00:31N 50°25' E 000°34'714.8
2017-Nov-06 00:01N 50°24' E 000°22'815.2
2017-Nov-05 23:31N 50°22' E 000°11'815.5
2017-Nov-05 23:00N 50°20' W 000°01'816.2
2017-Nov-05 22:31N 50°17' W 000°13'1117.1
2017-Nov-05 21:52N 50°14' W 000°29'717.6
2017-Nov-05 21:30N 50°12' W 000°39'917.8
2017-Nov-05 21:00N 50°09' W 000°52'917.9
2017-Nov-05 20:30N 50°07' W 001°05'918.2
2017-Nov-05 20:01N 50°04' W 001°19'918.3
2017-Nov-05 19:31N 50°02' W 001°33'816.7
2017-Nov-05 19:00N 49°59' W 001°45'713.3
2017-Nov-05 18:30N 49°57' W 001°55'612.2
2017-Nov-05 18:00N 49°56' W 002°04'611.3
2017-Nov-05 17:30N 49°54' W 002°13'910.2
2017-Nov-05 16:37N 49°53' W 002°26'2 9.7
2017-Nov-05 16:25N 49°52' W 002°29'4 9.4
2017-Nov-05 15:58N 49°51' W 002°36'4 9.0
2017-Nov-05 15:31N 49°50' W 002°42'4 8.7
2017-Nov-05 15:01N 49°49' W 002°49'4 8.5
2017-Nov-05 14:30N 49°47' W 002°54'4 8.4
2017-Nov-05 14:00N 49°45' W 003°00'4 8.4
2017-Nov-05 13:31N 49°43' W 003°06'4 8.3
2017-Nov-05 13:01N 49°41' W 003°11'4 8.4
2017-Nov-05 12:31N 49°39' W 003°17'4 8.3
2017-Nov-05 12:01N 49°37' W 003°22'4810.6
2017-Nov-05 07:28N 49°12' W 004°26'715.6
2017-Nov-05 07:00N 49°08' W 004°35'  

Dump ship's entire track history